| time (UTC) | temp C | wind direction | speed KPH | gust KPH | rain 1hr cm | rain 24hr cm | rain mn cm | humidity % | barometer mb |
| 20260509234552 | 23 | 5 | 0.0 | 6.4 | 0.00 | 0.00 | 0.00 | 74 | 1008.6 |
| 20260509233051 | 24 | 279 | 1.6 | 4.8 | 0.00 | 0.00 | 0.00 | 71 | 1009.0 |
| 20260509231552 | 23 | 198 | 0.0 | 3.2 | 0.00 | 0.00 | 0.00 | 71 | 1008.7 |
| 20260509230051 | 23 | 210 | 4.8 | 6.4 | 0.00 | 0.00 | 0.00 | 70 | 1008.6 |
| 20260509224552 | 24 | 291 | 1.6 | 11.3 | 0.00 | 0.00 | 0.00 | 67 | 1008.9 |
| 20260509223056 | 25 | 296 | 1.6 | 8.0 | 0.00 | 0.00 | 0.00 | 67 | 1008.4 |
| 20260509221551 | 26 | 290 | 6.4 | 17.7 | 0.00 | 0.00 | 0.00 | 69 | 1008.7 |
| 20260509220056 | 28 | 290 | 4.8 | 14.5 | 0.00 | 0.00 | 0.00 | 72 | 1008.0 |
| 20260509214610 | 28 | 38 | 1.6 | 6.4 | 0.00 | 0.00 | 0.00 | 71 | 1007.9 |
| 20260509213049 | 30 | 245 | 8.0 | 12.9 | 0.00 | 0.00 | 0.00 | 69 | 1008.2 |
| 20260509211550 | 31 | 252 | 1.6 | 3.2 | 0.00 | 0.00 | 0.00 | 64 | 1008.1 |
| 20260509210100 | 31 | 252 | 1.6 | 4.8 | 0.00 | 0.00 | 0.00 | 63 | 1008.3 |
| 20260509204557 | 32 | 259 | 4.8 | 12.9 | 0.00 | 0.00 | 0.00 | 58 | 1008.4 |
| 20260509203102 | 32 | 238 | 3.2 | 8.0 | 0.00 | 0.00 | 0.00 | 62 | 1008.7 |
| 20260509201552 | 31 | 213 | 1.6 | 9.7 | 0.00 | 0.00 | 0.00 | 67 | 1008.8 |
| 20260509200051 | 30 | 322 | 1.6 | 8.0 | 0.00 | 0.00 | 0.00 | 71 | 1008.7 |
| 20260509194553 | 31 | 0 | 3.2 | 16.1 | 0.00 | 0.00 | 0.00 | 66 | 1009.0 |
| 20260509193058 | 30 | 250 | 1.6 | 12.9 | 0.00 | 0.00 | 0.00 | 70 | 1009.0 |
| 20260509191601 | 31 | 273 | 8.0 | 12.9 | 0.00 | 0.00 | 0.00 | 69 | 1009.2 |
| 20260509190055 | 30 | 257 | 3.2 | 11.3 | 0.00 | 0.00 | 0.00 | 72 | 1009.5 |
| 20260509184559 | 30 | 224 | 1.6 | 11.3 | 0.00 | 0.00 | 0.00 | 71 | 1009.7 |
| 20260509183058 | 30 | 192 | 4.8 | 8.0 | 0.00 | 0.00 | 0.00 | 70 | 1009.8 |
| 20260509181558 | 30 | 186 | 4.8 | 14.5 | 0.00 | 0.00 | 0.00 | 70 | 1010.0 |
| 20260509180050 | 30 | 178 | 3.2 | 12.9 | 0.00 | 0.00 | 0.00 | 74 | 1010.3 |
| 20260509174619 | 28 | 202 | 6.4 | 16.1 | 0.00 | 0.00 | 0.00 | 77 | 1010.4 |
| 20260509173054 | 28 | 196 | 4.8 | 11.3 | 0.00 | 0.00 | 0.00 | 76 | 1010.6 |
| 20260509171554 | 28 | 0 | 0.0 | 6.4 | 0.00 | 0.00 | 0.00 | 79 | 1010.7 |
| 20260509170106 | 27 | 188 | 4.8 | 9.7 | 0.00 | 0.00 | 0.00 | 77 | 1010.9 |
| 20260509164556 | 27 | 170 | 1.6 | 11.3 | 0.00 | 0.00 | 0.00 | 78 | 1011.1 |
| 20260509163057 | 27 | 0 | 0.0 | 6.4 | 0.00 | 0.00 | 0.00 | 80 | 1011.0 |
| 20260509161602 | 27 | 0 | 0.0 | 4.8 | 0.00 | 0.00 | 0.00 | 82 | 1010.7 |
| 20260509160058 | 27 | 275 | 0.0 | 3.2 | 0.00 | 0.00 | 0.00 | 82 | 1010.9 |
| 20260509154601 | 26 | 276 | 0.0 | 4.8 | 0.00 | 0.00 | 0.00 | 85 | 1011.0 |
| 20260509153113 | 26 | 267 | 1.6 | 11.3 | 0.00 | 0.00 | 0.00 | 88 | 1010.9 |
| 20260509151559 | 25 | 0 | 3.2 | 9.7 | 0.00 | 0.00 | 0.00 | 90 | 1010.9 |
| 20260509150103 | 24 | 0 | 1.6 | 6.4 | 0.00 | 0.00 | 0.00 | 96 | 1010.9 |
| 20260509144550 | 23 | 241 | 3.2 | 4.8 | 0.00 | 0.00 | 0.00 | 97 | 1010.4 |
| 20260509143052 | 24 | 182 | 0.0 | 3.2 | 0.00 | 0.00 | 0.00 | 98 | 1010.2 |
| 20260509141555 | 23 | 183 | 0.0 | 4.8 | 0.00 | 0.00 | 0.00 | 98 | 1010.1 |
| 20260509140052 | 23 | 182 | 1.6 | 4.8 | 0.00 | 0.00 | 0.00 | 98 | 1010.0 |
| 20260509134549 | 23 | 0 | 0.0 | 4.8 | 0.00 | 0.00 | 0.00 | 98 | 1010.3 |
| 20260509133051 | 23 | 182 | 1.6 | 6.4 | 0.00 | 0.00 | 0.00 | 98 | 1010.8 |
| 20260509131552 | 22 | 186 | 0.0 | 6.4 | 0.00 | 0.00 | 0.00 | 98 | 1010.6 |
| 20260509130104 | 22 | 159 | 3.2 | 12.9 | 0.00 | 0.00 | 0.00 | 98 | 1010.3 |
| 20260509124555 | -17 | 0.0 | 0.0 | 0.00 | 0.00 | 0.00 | 1010.6 | ||
| 20260509123054 | -17 | 0.0 | 0.0 | 0.00 | 0.00 | 0.00 | 1011.1 | ||
| 20260509121616 | -17 | 0.0 | 0.0 | 0.00 | 0.00 | 0.00 | 1010.9 | ||
| 20260509120055 | -17 | 0.0 | 0.0 | 0.00 | 0.00 | 0.00 | 1010.9 | ||
| 20260509114559 | -17 | 0.0 | 0.0 | 0.00 | 0.00 | 0.00 | 1010.5 | ||
| 20260509113058 | -17 | 0.0 | 0.0 | 0.00 | 0.00 | 0.00 | 1010.7 | ||
| 20260509111553 | -17 | 0.0 | 0.0 | 0.00 | 0.00 | 0.00 | 1010.5 | ||
| 20260509110052 | -17 | 0.0 | 0.0 | 0.00 | 0.00 | 0.00 | 1010.3 | ||
| 20260509104556 | -17 | 0.0 | 0.0 | 0.00 | 0.00 | 0.00 | 1010.9 | ||
| 20260509103100 | -17 | 0.0 | 0.0 | 0.00 | 0.00 | 0.00 | 1010.4 | ||
| 20260509101603 | -17 | 0.0 | 0.0 | 0.00 | 0.00 | 0.00 | 1009.6 | ||
| 20260509100054 | -17 | 0.0 | 0.0 | 0.00 | 0.00 | 0.00 | 1009.7 | ||
| 20260509094603 | -17 | 0.0 | 0.0 | 0.00 | 0.00 | 0.00 | 1010.0 | ||
| 20260509093052 | -17 | 0.0 | 0.0 | 0.00 | 0.00 | 0.00 | 1010.0 | ||
| 20260509091605 | -17 | 0.0 | 0.0 | 0.00 | 0.00 | 0.00 | 1009.9 | ||
| 20260509090101 | -17 | 0.0 | 0.0 | 0.00 | 0.00 | 0.00 | 1009.9 | ||
| 20260509084554 | -17 | 0.0 | 0.0 | 0.00 | 0.00 | 0.00 | 1010.1 | ||
| 20260509083101 | -17 | 0.0 | 0.0 | 0.00 | 0.00 | 0.00 | 1010.1 | ||
| 20260509081552 | -17 | 0.0 | 0.0 | 0.00 | 0.00 | 0.00 | 1010.2 | ||
| 20260509080054 | -17 | 0.0 | 0.0 | 0.00 | 0.00 | 0.00 | 1010.3 | ||
| 20260509074554 | -17 | 0.0 | 0.0 | 0.00 | 0.00 | 0.00 | 1010.0 | ||
| 20260509073054 | -17 | 0.0 | 0.0 | 0.00 | 0.00 | 0.00 | 1009.9 | ||
| 20260509071553 | -17 | 0.0 | 0.0 | 0.00 | 0.00 | 0.00 | 1010.1 | ||
| 20260509070054 | -17 | 0.0 | 0.0 | 0.00 | 0.00 | 0.00 | 1010.1 | ||
| 20260509064553 | -17 | 0.0 | 0.0 | 0.00 | 0.00 | 0.00 | 1009.8 | ||
| 20260509063052 | -17 | 0.0 | 0.0 | 0.00 | 0.00 | 0.00 | 1009.7 | ||
| 20260509061551 | -17 | 0.0 | 0.0 | 0.00 | 0.00 | 0.00 | 1010.0 | ||
| 20260509060104 | -17 | 0.0 | 0.0 | 0.00 | 0.00 | 0.00 | 1010.3 | ||
| 20260509054551 | -17 | 0.0 | 0.0 | 0.00 | 0.00 | 0.00 | 1010.7 | ||
| 20260509053112 | -17 | 0.0 | 0.0 | 0.00 | 0.00 | 0.00 | 1010.5 | ||
| 20260509051554 | -17 | 0.0 | 0.0 | 0.00 | 0.00 | 0.00 | 1010.6 | ||
| 20260509050054 | -17 | 0.0 | 0.0 | 0.00 | 0.00 | 0.00 | 1010.6 | ||
| 20260509044631 | -17 | 3.2 | 0.0 | 0.00 | 0.00 | 0.00 | 1010.5 | ||
| 20260509043132 | 22 | 93 | 1.6 | 12.9 | 0.00 | 0.00 | 0.00 | 89 | 1010.4 |
| 20260509041551 | 22 | 100 | 1.6 | 11.3 | 0.00 | 0.00 | 0.00 | 89 | 1010.5 |
| 20260509034555 | 22 | 91 | 0.0 | 4.8 | 0.00 | 0.00 | 0.00 | 89 | 1010.3 |
| 20260509033058 | 22 | 90 | 1.6 | 6.4 | 0.00 | 0.00 | 0.00 | 89 | 1010.2 |
| 20260509031601 | 22 | 92 | 0.0 | 4.8 | 0.00 | 0.00 | 0.00 | 89 | 1010.0 |
| 20260509030112 | 22 | 90 | 3.2 | 11.3 | 0.00 | 0.00 | 0.00 | 88 | 1009.9 |
| 20260509024553 | 23 | 76 | 4.8 | 11.3 | 0.00 | 0.00 | 0.00 | 88 | 1009.7 |
| 20260509023058 | 23 | 89 | 4.8 | 12.9 | 0.00 | 0.00 | 0.00 | 88 | 1009.6 |
| 20260509021556 | 23 | 98 | 3.2 | 9.7 | 0.00 | 0.00 | 0.00 | 88 | 1009.5 |
| 20260509020105 | 23 | 81 | 3.2 | 11.3 | 0.00 | 0.00 | 0.00 | 88 | 1009.4 |
| 20260509014558 | 23 | 80 | 3.2 | 6.4 | 0.00 | 0.00 | 0.00 | 88 | 1009.4 |
| 20260509013100 | 23 | 78 | 3.2 | 11.3 | 0.00 | 0.00 | 0.00 | 87 | 1009.1 |
| 20260509011558 | 23 | 86 | 4.8 | 14.5 | 0.00 | 0.00 | 0.00 | 86 | 1009.2 |
| 20260509010056 | 23 | 98 | 3.2 | 11.3 | 0.00 | 0.00 | 0.00 | 86 | 1009.1 |
| 20260509004558 | 23 | 94 | 1.6 | 11.3 | 0.00 | 0.00 | 0.00 | 86 | 1009.0 |
| 20260509003056 | 24 | 0 | 1.6 | 4.8 | 0.00 | 0.00 | 0.00 | 85 | 1009.0 |
| 20260509001551 | 24 | 84 | 3.2 | 12.9 | 0.00 | 0.00 | 0.00 | 85 | 1008.9 |
| 20260509000054 | 24 | 96 | 1.6 | 9.7 | 0.00 | 0.00 | 0.00 | 84 | 1009.0 |